Center, Kentucky
Current Conditions -  °F | °C
As of 5:35 AM on Saturday 01 Nov 2014 (Local Time) from KGLW Reporting Station
Overcast Overcast  
Wind Chill: 28°   Ceiling: 2400
Heat Index: 36°   Visibility: 10mi
Dew Point: 28°   Wind: 12mph
Humidity: 75%   Direction: 340°NNW
Pressure: 30.17"   Gusts: 21mph
Location:  37.14°N, 85.69°W
Report Text: KGLW 011035Z AUTO 34010G18KT 10SM OVC024 02/M02 A3017 RMK AO2 T00201020
Loading
Personal Weather Stations






























Interactive Weather Map
Tropical Storm Tracking
New forecast layout! Learn more

10-Day Weather Forecast

Advertisements
Track Severe Weather on mobile